createdAt,value
2019-04-01T00:00:53.543Z,49.20
2019-04-01T00:03:22.554Z,49.40
2019-04-01T00:05:51.503Z,49.40
2019-04-01T00:08:20.563Z,49.20
2019-04-01T00:10:49.696Z,49.50
2019-04-01T00:13:18.610Z,49.20
2019-04-01T00:15:47.850Z,49.20
2019-04-01T00:18:16.759Z,49.30
2019-04-01T00:20:45.540Z,49.50
2019-04-01T00:23:14.512Z,49.70
2019-04-01T00:25:43.470Z,49.30
2019-04-01T00:28:12.408Z,49.70
2019-04-01T00:30:41.565Z,49.80
2019-04-01T00:33:10.580Z,49.70
2019-04-01T00:35:39.474Z,49.70
2019-04-01T00:38:08.474Z,49.70
2019-04-01T00:40:37.867Z,51.00
2019-04-01T00:43:20.974Z,51.00
2019-04-01T00:45:51.435Z,50.50
2019-04-01T00:48:20.642Z,50.90
2019-04-01T00:50:49.494Z,50.70
2019-04-01T00:53:18.715Z,50.10
2019-04-01T00:55:47.590Z,50.50
2019-04-01T00:58:16.678Z,51.00
2019-04-01T01:00:45.695Z,50.70
2019-04-01T01:03:14.770Z,50.40
2019-04-01T01:05:43.981Z,51.40
2019-04-01T01:08:12.873Z,50.70
2019-04-01T01:10:41.867Z,50.80
2019-04-01T01:13:10.782Z,51.50
2019-04-01T01:15:39.839Z,51.40
2019-04-01T01:18:08.873Z,51.00
2019-04-01T01:20:37.695Z,51.50
2019-04-01T01:23:06.690Z,51.20
2019-04-01T01:25:35.550Z,51.10
2019-04-01T01:28:04.799Z,51.40
2019-04-01T01:30:33.862Z,51.50
2019-04-01T01:33:02.878Z,51.50
2019-04-01T01:35:32.779Z,51.30
2019-04-01T01:38:01.910Z,51.20
2019-04-01T01:40:30.668Z,51.30
2019-04-01T01:42:59.597Z,52.10
2019-04-01T01:45:28.466Z,51.50
2019-04-01T01:47:57.435Z,52.20
2019-04-01T01:50:26.486Z,51.70
2019-04-01T01:52:55.562Z,51.40
2019-04-01T01:55:24.523Z,52.30
2019-04-01T01:57:53.589Z,51.70
2019-04-01T02:00:23.920Z,52.00
2019-04-01T02:02:52.871Z,52.00
2019-04-01T02:05:21.868Z,52.40
2019-04-01T02:07:50.877Z,51.60
2019-04-01T02:10:19.864Z,52.30
2019-04-01T02:12:48.886Z,52.50
2019-04-01T02:15:18.008Z,53.10
2019-04-01T02:17:47.009Z,52.40
2019-04-01T02:20:16.246Z,52.20
2019-04-01T02:22:45.430Z,53.00
2019-04-01T02:25:14.455Z,53.10
2019-04-01T02:27:43.451Z,52.10
2019-04-01T02:30:12.493Z,52.70
2019-04-01T02:32:41.645Z,52.60
2019-04-01T02:35:10.398Z,52.80
2019-04-01T02:37:39.528Z,52.20
2019-04-01T02:40:08.579Z,53.00
2019-04-01T02:42:37.583Z,52.80
2019-04-01T02:45:06.478Z,53.00
2019-04-01T02:47:35.546Z,52.40
2019-04-01T02:50:05.324Z,52.30
2019-04-01T02:52:34.393Z,52.50
2019-04-01T02:55:06.602Z,52.70
2019-04-01T02:57:34.049Z,52.50
2019-04-01T03:00:03.027Z,52.20
2019-04-01T03:02:31.957Z,52.70
2019-04-01T03:05:00.926Z,52.20
2019-04-01T03:07:30.010Z,52.70
2019-04-01T03:09:59.076Z,52.70
2019-04-01T03:12:28.063Z,52.50
2019-04-01T03:14:56.961Z,52.30
2019-04-01T03:17:26.086Z,52.80
2019-04-01T03:19:55.061Z,53.30
2019-04-01T03:22:23.930Z,52.70
2019-04-01T03:24:52.851Z,52.40
2019-04-01T03:27:21.723Z,52.80
2019-04-01T03:29:50.762Z,52.80
2019-04-01T03:32:19.835Z,52.80
2019-04-01T03:34:48.722Z,53.30
2019-04-01T03:37:17.705Z,53.10
2019-04-01T03:39:46.843Z,52.80
2019-04-01T03:42:15.973Z,52.60
2019-04-01T03:44:45.035Z,53.30
2019-04-01T03:47:14.166Z,53.10
2019-04-01T03:49:43.593Z,54.20
2019-04-01T03:52:12.586Z,53.70
2019-04-01T03:54:41.979Z,53.80
2019-04-01T03:57:10.849Z,53.60
2019-04-01T03:59:39.924Z,53.90
2019-04-01T04:02:08.811Z,53.90
2019-04-01T04:04:37.965Z,53.80
2019-04-01T04:07:08.466Z,53.60
2019-04-01T04:09:37.320Z,54.00
2019-04-01T04:12:06.313Z,54.60
2019-04-01T04:14:35.469Z,54.80
2019-04-01T04:17:04.461Z,54.20
2019-04-01T04:19:33.527Z,53.90
2019-04-01T04:22:02.598Z,54.10
2019-04-01T04:24:31.567Z,53.70
2019-04-01T04:27:00.850Z,54.30
2019-04-01T04:29:29.756Z,55.10
2019-04-01T04:31:58.664Z,54.70
2019-04-01T04:34:27.778Z,54.50
2019-04-01T04:36:56.844Z,54.30
2019-04-01T04:39:25.919Z,54.80
2019-04-01T04:41:54.820Z,55.00
2019-04-01T04:44:23.767Z,54.90
2019-04-01T04:46:52.839Z,55.70
2019-04-01T04:49:21.838Z,54.80
2019-04-01T04:51:51.054Z,54.50
2019-04-01T04:54:19.983Z,55.00
2019-04-01T04:56:48.857Z,54.70
2019-04-01T04:59:19.241Z,54.50
2019-04-01T05:01:49.486Z,54.20
2019-04-01T05:04:18.636Z,54.30
2019-04-01T05:06:47.732Z,54.30
2019-04-01T05:09:16.870Z,55.20
2019-04-01T05:11:46.074Z,55.40
2019-04-01T05:14:14.921Z,55.00
2019-04-01T05:16:44.067Z,54.40
2019-04-01T05:19:12.938Z,54.20
2019-04-01T05:21:41.932Z,54.70
2019-04-01T05:24:11.258Z,54.40
2019-04-01T05:26:40.392Z,54.50
2019-04-01T05:29:09.458Z,55.10
2019-04-01T05:31:39.764Z,55.00
2019-04-01T05:34:08.990Z,55.40
2019-04-01T05:36:37.932Z,54.70
2019-04-01T05:39:07.676Z,54.90
2019-04-01T05:41:38.831Z,55.40
2019-04-01T05:44:07.883Z,55.20
2019-04-01T05:46:36.930Z,55.60
2019-04-01T05:49:06.007Z,54.90
2019-04-01T05:51:34.980Z,56.00
2019-04-01T05:54:04.029Z,55.70
2019-04-01T05:56:32.963Z,55.80
2019-04-01T05:59:02.219Z,56.50
2019-04-01T06:01:35.071Z,56.00
2019-04-01T06:04:05.111Z,56.20
2019-04-01T06:06:34.193Z,55.70
2019-04-01T06:09:05.144Z,55.70
2019-04-01T06:11:34.311Z,56.40
2019-04-01T06:14:03.565Z,56.30
2019-04-01T06:16:32.691Z,56.30
2019-04-01T06:19:01.619Z,56.10
2019-04-01T06:21:31.308Z,56.40
2019-04-01T06:24:00.475Z,56.10
2019-04-01T06:26:30.161Z,55.80
2019-04-01T06:28:59.202Z,56.30
2019-04-01T06:31:28.315Z,55.60
2019-04-01T06:33:57.700Z,55.40
2019-04-01T06:36:26.870Z,55.60
2019-04-01T06:38:56.146Z,55.70
2019-04-01T06:41:25.122Z,55.70
2019-04-01T06:43:54.282Z,55.50
2019-04-01T06:46:23.167Z,55.30
2019-04-01T06:48:52.335Z,56.10
2019-04-01T06:51:21.499Z,57.00
2019-04-01T06:53:50.767Z,55.60
2019-04-01T06:56:20.034Z,55.90
2019-04-01T06:58:49.119Z,55.20
2019-04-01T07:01:18.363Z,55.60
2019-04-01T07:03:47.335Z,55.60
2019-04-01T07:06:16.566Z,55.20
2019-04-01T07:08:46.120Z,54.80
2019-04-01T07:11:14.881Z,54.90
2019-04-01T07:13:44.574Z,54.60
2019-04-01T07:16:15.955Z,55.00
2019-04-01T07:18:44.789Z,54.40
2019-04-01T07:21:13.933Z,54.30
2019-04-01T07:23:43.005Z,54.10
2019-04-01T07:26:12.032Z,54.60
2019-04-01T07:28:41.143Z,53.80
2019-04-01T07:31:10.521Z,53.80
2019-04-01T07:33:39.665Z,53.40
2019-04-01T07:36:08.725Z,53.30
2019-04-01T07:38:37.560Z,53.00
2019-04-01T07:41:06.808Z,53.00
2019-04-01T07:43:35.945Z,52.70
2019-04-01T07:46:08.004Z,52.60
2019-04-01T07:48:35.548Z,52.40
2019-04-01T07:51:07.044Z,53.10
2019-04-01T07:53:35.229Z,53.40
2019-04-01T07:56:04.267Z,54.30
2019-04-01T07:58:33.270Z,52.60
2019-04-01T08:01:02.109Z,51.70
2019-04-01T08:03:31.064Z,50.70
2019-04-01T08:06:00.277Z,50.10
2019-04-01T08:08:31.237Z,49.80
2019-04-01T08:11:00.302Z,46.60
2019-04-01T08:13:29.784Z,47.10
2019-04-01T08:15:59.096Z,44.80
2019-04-01T08:18:28.082Z,43.10
2019-04-01T08:20:57.310Z,40.70
2019-04-01T08:23:26.454Z,41.50
2019-04-01T08:25:58.464Z,41.10
2019-04-01T08:28:27.571Z,40.40
2019-04-01T08:30:56.932Z,39.80
2019-04-01T08:33:26.051Z,38.20
2019-04-01T08:35:55.178Z,37.80
2019-04-01T08:38:27.295Z,37.00
2019-04-01T08:40:56.335Z,36.90
2019-04-01T08:43:27.159Z,35.60
2019-04-01T08:45:56.373Z,35.00
2019-04-01T08:48:25.471Z,36.50
2019-04-01T08:50:58.978Z,38.00
2019-04-01T08:53:28.154Z,34.50
2019-04-01T08:56:00.957Z,35.10
2019-04-01T08:58:27.839Z,31.60
2019-04-01T09:00:57.666Z,32.30
2019-04-01T09:03:26.526Z,33.60
2019-04-01T09:05:55.748Z,33.30
2019-04-01T09:08:25.044Z,33.90
2019-04-01T09:10:54.030Z,31.70
2019-04-01T09:13:23.240Z,32.80
2019-04-01T09:15:52.403Z,30.60
2019-04-01T09:18:21.329Z,31.10
2019-04-01T09:20:50.330Z,30.50
2019-04-01T09:23:19.472Z,30.90
2019-04-01T09:25:48.543Z,31.30
2019-04-01T09:28:17.632Z,30.20
2019-04-01T09:30:46.732Z,28.70
2019-04-01T09:33:38.291Z,30.10
2019-04-01T09:35:54.891Z,28.70
2019-04-01T09:38:24.102Z,29.30
2019-04-01T09:40:53.133Z,28.60
2019-04-01T09:43:22.318Z,29.60
2019-04-01T09:45:51.239Z,29.50
2019-04-01T09:48:23.552Z,29.60
2019-04-01T09:50:50.969Z,29.90
2019-04-01T09:53:20.083Z,29.30
2019-04-01T09:55:49.431Z,29.40
2019-04-01T09:58:18.937Z,28.90
2019-04-01T10:00:53.259Z,28.00
2019-04-01T10:03:22.024Z,27.70
2019-04-01T10:05:51.778Z,28.70
2019-04-01T10:08:21.091Z,27.20
2019-04-01T10:10:50.059Z,27.90
2019-04-01T10:13:19.056Z,27.90
2019-04-01T10:15:48.169Z,28.70
2019-04-01T10:18:17.772Z,27.40
2019-04-01T10:20:46.686Z,27.40
2019-04-01T10:23:15.960Z,27.70
2019-04-01T10:25:45.313Z,27.90
2019-04-01T10:28:14.610Z,26.20
2019-04-01T10:30:43.779Z,26.60
2019-04-01T10:33:13.352Z,27.30
2019-04-01T10:35:44.839Z,26.60
2019-04-01T10:38:13.166Z,26.90
2019-04-01T10:40:42.183Z,27.10
2019-04-01T10:43:11.496Z,26.90
2019-04-01T10:45:40.738Z,26.00
2019-04-01T10:48:09.692Z,25.90
2019-04-01T10:50:38.928Z,25.40
2019-04-01T10:53:07.838Z,25.20
2019-04-01T10:55:37.063Z,25.40
2019-04-01T10:58:06.245Z,25.70
2019-04-01T11:00:35.406Z,25.20
2019-04-01T11:03:06.134Z,25.70
2019-04-01T11:05:35.376Z,25.30
2019-04-01T11:08:04.772Z,24.90
2019-04-01T11:10:33.934Z,25.70
2019-04-01T11:13:02.993Z,25.20
2019-04-01T11:15:31.895Z,25.20
2019-04-01T11:18:04.752Z,24.60
2019-04-01T11:20:34.132Z,23.70
2019-04-01T11:23:04.162Z,24.70
2019-04-01T11:25:33.615Z,24.70
2019-04-01T11:28:03.000Z,24.80
2019-04-01T11:30:32.101Z,25.60
2019-04-01T11:33:01.236Z,24.80
2019-04-01T11:35:30.585Z,24.60
2019-04-01T11:37:59.881Z,24.30
2019-04-01T11:40:28.880Z,24.30
2019-04-01T11:42:57.946Z,24.00
2019-04-01T11:45:27.219Z,24.40
2019-04-01T11:47:56.509Z,24.10
2019-04-01T11:50:25.568Z,23.30
2019-04-01T11:52:54.691Z,23.40
2019-04-01T11:55:24.083Z,23.70
2019-04-01T11:57:53.000Z,24.10
2019-04-01T12:00:22.304Z,24.30
2019-04-01T12:02:51.676Z,23.80
2019-04-01T12:05:21.843Z,23.60
2019-04-01T12:07:50.910Z,24.00
2019-04-01T12:10:19.878Z,24.00
2019-04-01T12:12:48.858Z,23.90
2019-04-01T12:15:18.113Z,23.40
2019-04-01T12:17:47.113Z,23.00
2019-04-01T12:20:16.431Z,22.80
2019-04-01T12:22:46.146Z,23.40
2019-04-01T12:25:15.233Z,23.80
2019-04-01T12:27:45.130Z,23.30
2019-04-01T12:30:14.566Z,23.40
2019-04-01T12:32:43.816Z,23.10
2019-04-01T12:35:12.809Z,23.10
2019-04-01T12:37:42.001Z,23.30
2019-04-01T12:42:39.772Z,22.30
2019-04-01T12:45:08.626Z,22.60
2019-04-01T12:47:42.740Z,22.70
2019-04-01T12:50:09.500Z,22.60
2019-04-01T12:52:38.495Z,22.90
2019-04-01T12:55:08.012Z,23.20
2019-04-01T12:57:36.995Z,22.70
2019-04-01T13:00:10.453Z,23.10
2019-04-01T13:02:39.633Z,22.80
2019-04-01T13:05:08.840Z,22.90
2019-04-01T13:07:38.037Z,22.80
2019-04-01T13:10:08.543Z,21.50
2019-04-01T13:12:37.498Z,22.80
2019-04-01T13:15:06.399Z,22.70
2019-04-01T13:17:35.306Z,22.30
2019-04-01T13:20:05.367Z,22.30
2019-04-01T13:22:34.534Z,22.30
2019-04-01T13:25:05.745Z,22.40
2019-04-01T13:27:34.605Z,22.60
2019-04-01T13:30:04.312Z,22.40
2019-04-01T13:32:33.351Z,22.30
2019-04-01T13:35:02.312Z,22.50
2019-04-01T13:37:31.508Z,22.00
2019-04-01T13:40:02.866Z,22.40
2019-04-01T13:42:31.474Z,22.20
2019-04-01T13:45:02.056Z,22.50
2019-04-01T13:47:31.300Z,22.50
2019-04-01T13:50:00.433Z,22.50
2019-04-01T13:52:29.498Z,22.70
2019-04-01T13:54:58.659Z,22.10
2019-04-01T13:57:28.117Z,23.00
2019-04-01T13:59:57.310Z,23.00
2019-04-01T14:02:27.857Z,22.90
2019-04-01T14:04:56.768Z,22.90
2019-04-01T14:07:26.057Z,22.50
2019-04-01T14:09:55.300Z,22.70
2019-04-01T14:12:24.568Z,22.30
2019-04-01T14:14:53.616Z,22.30
2019-04-01T14:17:22.824Z,22.70
2019-04-01T14:19:52.013Z,22.20
2019-04-01T14:22:21.168Z,22.80
2019-04-01T14:24:50.478Z,22.80
2019-04-01T14:27:19.658Z,22.90
2019-04-01T14:29:48.646Z,23.10
2019-04-01T14:32:18.196Z,23.10
2019-04-01T14:34:50.385Z,22.50
2019-04-01T14:37:25.202Z,22.80
2019-04-01T14:39:49.080Z,22.20
2019-04-01T14:42:18.198Z,22.60
2019-04-01T14:44:58.266Z,22.10
2019-04-01T14:47:27.695Z,22.80
2019-04-01T14:49:56.785Z,22.50
2019-04-01T14:52:32.584Z,23.60
2019-04-01T14:54:56.661Z,24.30
2019-04-01T14:57:26.160Z,24.00
2019-04-01T14:59:56.376Z,24.30
2019-04-01T15:02:25.604Z,25.30
2019-04-01T15:04:54.638Z,25.60
2019-04-01T15:07:23.626Z,25.50
2019-04-01T15:09:52.527Z,25.70
2019-04-01T15:12:22.115Z,26.10
2019-04-01T15:14:51.280Z,26.70
2019-04-01T15:17:20.503Z,27.70
2019-04-01T15:19:49.683Z,26.90
2019-04-01T15:22:19.217Z,27.00
2019-04-01T15:24:50.274Z,27.30
2019-04-01T15:27:22.430Z,27.70
2019-04-01T15:29:50.512Z,27.70
2019-04-01T15:32:19.738Z,27.50
2019-04-01T15:34:48.667Z,27.60
2019-04-01T15:37:17.913Z,27.70
2019-04-01T15:39:47.293Z,28.40
2019-04-01T15:42:16.752Z,28.00
2019-04-01T15:44:45.923Z,28.60
2019-04-01T15:47:14.946Z,29.00
2019-04-01T15:49:43.818Z,28.50
2019-04-01T15:52:12.714Z,28.90
2019-04-01T15:54:41.840Z,28.70
2019-04-01T15:57:10.804Z,28.70
2019-04-01T15:59:39.872Z,29.30
2019-04-01T16:02:08.952Z,28.90
2019-04-01T16:04:37.956Z,29.00
2019-04-01T16:07:06.969Z,29.20
2019-04-01T16:09:36.056Z,29.30
2019-04-01T16:12:05.093Z,29.80
2019-04-01T16:14:34.174Z,30.00
2019-04-01T16:17:03.269Z,29.80
2019-04-01T16:19:32.261Z,29.90
2019-04-01T16:22:01.488Z,29.60
2019-04-01T16:24:30.585Z,30.00
2019-04-01T16:26:59.484Z,29.60
2019-04-01T16:29:28.465Z,30.00
2019-04-01T16:31:57.836Z,30.00
2019-04-01T16:34:27.327Z,29.60
2019-04-01T16:36:56.145Z,29.60
2019-04-01T16:39:24.939Z,29.60
2019-04-01T16:41:53.840Z,30.30
2019-04-01T16:44:22.861Z,30.10
2019-04-01T16:46:51.936Z,30.10
2019-04-01T16:49:21.045Z,29.90
2019-04-01T16:51:49.982Z,29.80
2019-04-01T16:54:19.004Z,29.80
2019-04-01T16:56:49.166Z,29.90
2019-04-01T16:59:18.270Z,30.00
2019-04-01T17:01:47.181Z,30.00
2019-04-01T17:04:17.242Z,30.20
2019-04-01T17:06:46.583Z,30.30
2019-04-01T17:09:15.667Z,30.20
2019-04-01T17:11:44.818Z,30.40
2019-04-01T17:14:13.901Z,31.10
2019-04-01T17:16:42.952Z,30.50
2019-04-01T17:19:11.975Z,31.00
2019-04-01T17:21:41.069Z,31.00
2019-04-01T17:24:10.236Z,30.40
2019-04-01T17:27:00.355Z,30.40
2019-04-01T17:29:31.854Z,30.70
2019-04-01T17:32:00.326Z,30.60
2019-04-01T17:34:29.332Z,30.60
2019-04-01T17:37:01.151Z,30.70
2019-04-01T17:39:29.363Z,30.80
2019-04-01T17:41:58.628Z,30.90
2019-04-01T17:44:27.839Z,31.00
2019-04-01T17:46:57.036Z,31.30
2019-04-01T17:49:26.242Z,31.90
2019-04-01T17:51:56.335Z,31.30
2019-04-01T17:54:25.687Z,31.90
2019-04-01T17:56:55.598Z,31.60
2019-04-01T17:59:24.639Z,31.70
2019-04-01T18:01:56.920Z,32.00
2019-04-01T18:04:24.328Z,32.00
2019-04-01T18:06:54.081Z,32.00
2019-04-01T18:09:23.175Z,31.90
2019-04-01T18:11:52.421Z,32.10
2019-04-01T18:14:21.553Z,32.20
2019-04-01T18:16:50.707Z,32.20
2019-04-01T18:19:19.784Z,32.70
2019-04-01T18:21:48.936Z,32.70
2019-04-01T18:24:17.921Z,32.80
2019-04-01T18:26:46.949Z,33.40
2019-04-01T18:29:16.128Z,33.50
2019-04-01T18:31:45.581Z,33.10
2019-04-01T18:34:14.725Z,33.00
2019-04-01T18:36:44.107Z,33.10
2019-04-01T18:39:13.227Z,33.10
2019-04-01T18:41:43.268Z,33.90
2019-04-01T18:44:12.408Z,33.50
2019-04-01T18:46:41.468Z,33.30
2019-04-01T18:49:10.639Z,33.90
2019-04-01T18:51:40.356Z,33.50
2019-04-01T18:54:09.779Z,33.50
2019-04-01T18:56:39.009Z,34.30
2019-04-01T18:59:08.250Z,33.90
2019-04-01T19:01:37.031Z,33.80
2019-04-01T19:04:06.456Z,33.90
2019-04-01T19:06:36.082Z,34.10
2019-04-01T19:09:09.510Z,34.00
2019-04-01T19:11:38.929Z,34.90
2019-04-01T19:14:08.156Z,34.40
2019-04-01T19:16:37.497Z,34.50
2019-04-01T19:19:06.590Z,34.70
2019-04-01T19:21:37.122Z,35.80
2019-04-01T19:24:06.876Z,35.90
2019-04-01T19:26:36.352Z,35.70
2019-04-01T19:29:05.580Z,35.80
2019-04-01T19:31:34.689Z,37.00
2019-04-01T19:34:03.918Z,36.70
2019-04-01T19:36:32.982Z,36.10
2019-04-01T19:39:02.099Z,36.40
2019-04-01T19:41:31.214Z,36.30
2019-04-01T19:44:00.230Z,37.10
2019-04-01T19:46:29.531Z,37.20
2019-04-01T19:48:58.427Z,37.10
2019-04-01T19:51:28.221Z,37.50
2019-04-01T19:53:58.269Z,37.90
2019-04-01T19:56:27.396Z,38.20
2019-04-01T19:58:56.514Z,38.60
2019-04-01T20:01:25.374Z,39.10
2019-04-01T20:03:54.495Z,39.00
2019-04-01T20:06:23.439Z,39.70
2019-04-01T20:08:52.498Z,40.30
2019-04-01T20:11:21.486Z,39.80
2019-04-01T20:13:50.689Z,39.70
2019-04-01T20:16:19.802Z,39.80
2019-04-01T20:18:49.038Z,39.90
2019-04-01T20:21:18.076Z,39.60
2019-04-01T20:23:49.096Z,40.60
2019-04-01T20:26:20.712Z,40.20
2019-04-01T20:28:49.808Z,40.20
2019-04-01T20:31:18.897Z,40.10
2019-04-01T20:33:49.144Z,40.10
2019-04-01T20:38:48.673Z,40.80
2019-04-01T20:41:17.884Z,40.60
2019-04-01T20:43:49.858Z,42.10
2019-04-01T20:46:17.638Z,41.70
2019-04-01T20:48:46.718Z,42.20
2019-04-01T20:51:16.084Z,41.40
2019-04-01T20:53:45.258Z,41.90
2019-04-01T20:56:14.148Z,42.10
2019-04-01T20:58:43.215Z,42.50
2019-04-01T21:01:12.339Z,42.80
2019-04-01T21:03:41.370Z,42.90
2019-04-01T21:06:10.525Z,43.10
2019-04-01T21:08:39.489Z,42.90
2019-04-01T21:11:08.498Z,42.80
2019-04-01T21:13:37.581Z,43.10
2019-04-01T21:16:06.685Z,42.80
2019-04-01T21:18:35.697Z,43.00
2019-04-01T21:21:04.727Z,43.80
2019-04-01T21:23:33.728Z,44.60
2019-04-01T21:26:02.899Z,44.10
2019-04-01T21:28:32.169Z,44.10
2019-04-01T21:31:02.253Z,43.70
2019-04-01T21:33:31.059Z,44.30
2019-04-01T21:35:59.927Z,44.20
2019-04-01T21:38:29.163Z,44.20
2019-04-01T21:40:57.963Z,45.30
2019-04-01T21:43:26.938Z,44.90
2019-04-01T21:45:56.455Z,44.80
2019-04-01T21:48:25.603Z,45.30
2019-04-01T21:50:54.516Z,45.60
2019-04-01T21:53:23.379Z,45.20
2019-04-01T21:55:53.171Z,46.40
2019-04-01T21:58:22.774Z,46.20
2019-04-01T22:00:53.427Z,46.80
2019-04-01T22:03:22.224Z,44.90
2019-04-01T22:05:51.121Z,45.50
2019-04-01T22:08:20.196Z,45.80
2019-04-01T22:10:48.954Z,45.90
2019-04-01T22:13:17.707Z,46.30
2019-04-01T22:15:46.614Z,46.60
2019-04-01T22:18:15.564Z,45.70
2019-04-01T22:20:44.287Z,45.50
2019-04-01T22:23:13.162Z,45.40
2019-04-01T22:25:42.136Z,45.80
2019-04-01T22:28:11.062Z,45.90
2019-04-01T22:30:40.065Z,46.70
2019-04-01T22:33:08.964Z,46.10
2019-04-01T22:35:39.339Z,46.10
2019-04-01T22:38:08.511Z,45.80
2019-04-01T22:40:37.451Z,46.10
2019-04-01T22:43:06.440Z,46.00
2019-04-01T22:45:35.333Z,45.80
2019-04-01T22:48:04.548Z,46.00
2019-04-01T22:50:33.382Z,45.90
2019-04-01T22:53:04.163Z,45.70
2019-04-01T22:55:32.637Z,45.60
2019-04-01T22:58:01.763Z,45.20
2019-04-01T23:00:30.601Z,46.40
2019-04-01T23:02:59.571Z,45.40
2019-04-01T23:05:28.567Z,45.40
2019-04-01T23:07:57.454Z,45.30
2019-04-01T23:10:27.242Z,45.20
2019-04-01T23:12:56.539Z,45.10
2019-04-01T23:15:25.476Z,45.10
2019-04-01T23:17:54.298Z,45.50
2019-04-01T23:20:23.120Z,45.70
2019-04-01T23:22:51.964Z,45.50
2019-04-01T23:25:20.914Z,45.20
2019-04-01T23:27:49.716Z,45.00
2019-04-01T23:30:19.379Z,45.40
2019-04-01T23:32:48.955Z,44.80
2019-04-01T23:35:17.760Z,45.20
2019-04-01T23:37:46.508Z,44.70
2019-04-01T23:40:15.365Z,45.10
2019-04-01T23:42:44.209Z,45.00
2019-04-01T23:45:13.103Z,45.80
2019-04-01T23:47:41.877Z,46.70
2019-04-01T23:50:10.868Z,46.40
2019-04-01T23:52:39.676Z,46.20
2019-04-01T23:55:08.566Z,46.60
2019-04-01T23:57:37.392Z,46.70
